sensor_id;sensor_type;location;lat;lon;timestamp;P1;durP1;ratioP1;P2;durP2;ratioP2
29370;SDS011;16357;52.188;7.838;2023-02-10T00:01:11;33.85;;;20.80;;
29370;SDS011;16357;52.188;7.838;2023-02-10T00:03:39;34.83;;;20.77;;
29370;SDS011;16357;52.188;7.838;2023-02-10T00:06:06;33.85;;;20.98;;
29370;SDS011;16357;52.188;7.838;2023-02-10T00:08:34;37.00;;;20.60;;
29370;SDS011;16357;52.188;7.838;2023-02-10T00:11:06;33.28;;;20.48;;
29370;SDS011;16357;52.188;7.838;2023-02-10T00:13:35;35.58;;;20.10;;
29370;SDS011;16357;52.188;7.838;2023-02-10T00:16:04;34.58;;;21.05;;
29370;SDS011;16357;52.188;7.838;2023-02-10T00:18:32;38.92;;;20.63;;
29370;SDS011;16357;52.188;7.838;2023-02-10T00:21:06;40.20;;;22.10;;
29370;SDS011;16357;52.188;7.838;2023-02-10T00:23:40;41.22;;;20.55;;
29370;SDS011;16357;52.188;7.838;2023-02-10T00:26:08;33.63;;;20.02;;
29370;SDS011;16357;52.188;7.838;2023-02-10T00:28:37;37.08;;;21.73;;
29370;SDS011;16357;52.188;7.838;2023-02-10T00:31:09;35.40;;;21.30;;
29370;SDS011;16357;52.188;7.838;2023-02-10T00:33:40;38.35;;;21.40;;
29370;SDS011;16357;52.188;7.838;2023-02-10T00:36:08;34.92;;;21.60;;
29370;SDS011;16357;52.188;7.838;2023-02-10T00:38:36;37.97;;;21.63;;
29370;SDS011;16357;52.188;7.838;2023-02-10T00:41:04;38.05;;;20.88;;
29370;SDS011;16357;52.188;7.838;2023-02-10T00:43:32;34.13;;;20.50;;
29370;SDS011;16357;52.188;7.838;2023-02-10T00:45:59;38.58;;;20.83;;
29370;SDS011;16357;52.188;7.838;2023-02-10T00:48:25;36.33;;;21.20;;
29370;SDS011;16357;52.188;7.838;2023-02-10T00:50:52;35.22;;;20.83;;
29370;SDS011;16357;52.188;7.838;2023-02-10T00:53:19;37.53;;;21.55;;
29370;SDS011;16357;52.188;7.838;2023-02-10T00:55:46;40.90;;;21.42;;
29370;SDS011;16357;52.188;7.838;2023-02-10T00:58:13;38.53;;;21.27;;
29370;SDS011;16357;52.188;7.838;2023-02-10T01:00:39;38.28;;;20.77;;
29370;SDS011;16357;52.188;7.838;2023-02-10T01:03:06;36.95;;;20.92;;
29370;SDS011;16357;52.188;7.838;2023-02-10T01:05:32;35.25;;;21.83;;
29370;SDS011;16357;52.188;7.838;2023-02-10T01:07:59;35.97;;;21.60;;
29370;SDS011;16357;52.188;7.838;2023-02-10T01:10:25;37.63;;;21.40;;
29370;SDS011;16357;52.188;7.838;2023-02-10T01:12:52;36.45;;;21.70;;
29370;SDS011;16357;52.188;7.838;2023-02-10T01:15:18;39.20;;;21.42;;
29370;SDS011;16357;52.188;7.838;2023-02-10T01:17:45;35.13;;;20.52;;
29370;SDS011;16357;52.188;7.838;2023-02-10T01:20:11;36.50;;;20.80;;
29370;SDS011;16357;52.188;7.838;2023-02-10T01:22:37;42.88;;;22.10;;
29370;SDS011;16357;52.188;7.838;2023-02-10T01:25:04;39.05;;;22.35;;
29370;SDS011;16357;52.188;7.838;2023-02-10T01:27:31;34.15;;;20.58;;
29370;SDS011;16357;52.188;7.838;2023-02-10T01:29:57;37.88;;;21.77;;
29370;SDS011;16357;52.188;7.838;2023-02-10T01:32:24;33.50;;;20.85;;
29370;SDS011;16357;52.188;7.838;2023-02-10T01:34:50;36.92;;;21.15;;
29370;SDS011;16357;52.188;7.838;2023-02-10T01:37:17;37.13;;;21.45;;
29370;SDS011;16357;52.188;7.838;2023-02-10T01:39:43;38.70;;;21.73;;
29370;SDS011;16357;52.188;7.838;2023-02-10T01:42:12;37.83;;;22.30;;
29370;SDS011;16357;52.188;7.838;2023-02-10T01:47:07;38.08;;;22.42;;
29370;SDS011;16357;52.188;7.838;2023-02-10T01:49:36;41.65;;;23.17;;
29370;SDS011;16357;52.188;7.838;2023-02-10T01:52:07;40.85;;;22.30;;
29370;SDS011;16357;52.188;7.838;2023-02-10T01:54:45;42.88;;;24.23;;
29370;SDS011;16357;52.188;7.838;2023-02-10T01:57:15;38.75;;;22.52;;
29370;SDS011;16357;52.188;7.838;2023-02-10T01:59:43;35.92;;;21.85;;
29370;SDS011;16357;52.188;7.838;2023-02-10T02:02:11;43.75;;;23.52;;
29370;SDS011;16357;52.188;7.838;2023-02-10T02:04:45;41.97;;;23.25;;
29370;SDS011;16357;52.188;7.838;2023-02-10T02:07:27;40.20;;;22.33;;
29370;SDS011;16357;52.188;7.838;2023-02-10T02:09:58;44.40;;;23.52;;
29370;SDS011;16357;52.188;7.838;2023-02-10T02:15:24;42.83;;;23.50;;
29370;SDS011;16357;52.188;7.838;2023-02-10T02:32:04;46.40;;;23.42;;
29370;SDS011;16357;52.188;7.838;2023-02-10T02:37:13;43.78;;;24.95;;
29370;SDS011;16357;52.188;7.838;2023-02-10T02:39:43;45.70;;;25.30;;
29370;SDS011;16357;52.188;7.838;2023-02-10T02:42:17;44.03;;;25.30;;
29370;SDS011;16357;52.188;7.838;2023-02-10T02:44:47;43.15;;;24.98;;
29370;SDS011;16357;52.188;7.838;2023-02-10T02:48:03;43.55;;;24.08;;
29370;SDS011;16357;52.188;7.838;2023-02-10T02:50:21;42.88;;;23.25;;
29370;SDS011;16357;52.188;7.838;2023-02-10T02:55:28;39.22;;;24.20;;
29370;SDS011;16357;52.188;7.838;2023-02-10T03:00:57;43.15;;;24.40;;
29370;SDS011;16357;52.188;7.838;2023-02-10T03:03:32;43.45;;;23.20;;
29370;SDS011;16357;52.188;7.838;2023-02-10T03:06:00;46.22;;;25.42;;
29370;SDS011;16357;52.188;7.838;2023-02-10T03:08:27;42.35;;;23.42;;
29370;SDS011;16357;52.188;7.838;2023-02-10T03:10:55;40.80;;;23.02;;
29370;SDS011;16357;52.188;7.838;2023-02-10T03:13:22;43.03;;;24.42;;
29370;SDS011;16357;52.188;7.838;2023-02-10T03:15:49;48.80;;;26.63;;
29370;SDS011;16357;52.188;7.838;2023-02-10T03:18:16;43.08;;;25.13;;
29370;SDS011;16357;52.188;7.838;2023-02-10T03:20:43;48.10;;;25.67;;
29370;SDS011;16357;52.188;7.838;2023-02-10T03:23:10;47.40;;;24.75;;
29370;SDS011;16357;52.188;7.838;2023-02-10T03:25:36;40.85;;;23.83;;
29370;SDS011;16357;52.188;7.838;2023-02-10T03:28:03;49.85;;;26.45;;
29370;SDS011;16357;52.188;7.838;2023-02-10T03:30:32;41.67;;;23.95;;
29370;SDS011;16357;52.188;7.838;2023-02-10T03:32:59;44.00;;;25.70;;
29370;SDS011;16357;52.188;7.838;2023-02-10T03:35:25;45.47;;;25.55;;
29370;SDS011;16357;52.188;7.838;2023-02-10T03:37:52;42.47;;;24.75;;
29370;SDS011;16357;52.188;7.838;2023-02-10T03:40:18;41.08;;;23.73;;
29370;SDS011;16357;52.188;7.838;2023-02-10T03:42:45;39.08;;;23.23;;
29370;SDS011;16357;52.188;7.838;2023-02-10T03:45:11;42.58;;;25.75;;
29370;SDS011;16357;52.188;7.838;2023-02-10T03:47:38;42.13;;;25.67;;
29370;SDS011;16357;52.188;7.838;2023-02-10T03:50:04;45.70;;;25.85;;
29370;SDS011;16357;52.188;7.838;2023-02-10T03:52:31;44.88;;;25.45;;
29370;SDS011;16357;52.188;7.838;2023-02-10T03:54:57;45.20;;;25.77;;
29370;SDS011;16357;52.188;7.838;2023-02-10T03:57:24;44.40;;;26.73;;
29370;SDS011;16357;52.188;7.838;2023-02-10T03:59:51;47.25;;;26.80;;
29370;SDS011;16357;52.188;7.838;2023-02-10T04:02:17;50.42;;;26.95;;
29370;SDS011;16357;52.188;7.838;2023-02-10T04:04:44;46.63;;;26.52;;
29370;SDS011;16357;52.188;7.838;2023-02-10T04:07:10;47.13;;;26.83;;
29370;SDS011;16357;52.188;7.838;2023-02-10T04:09:37;46.85;;;28.13;;
29370;SDS011;16357;52.188;7.838;2023-02-10T04:12:03;47.35;;;26.35;;
29370;SDS011;16357;52.188;7.838;2023-02-10T04:14:30;51.78;;;25.92;;
29370;SDS011;16357;52.188;7.838;2023-02-10T04:16:56;48.80;;;27.63;;
29370;SDS011;16357;52.188;7.838;2023-02-10T04:19:23;43.50;;;26.08;;
29370;SDS011;16357;52.188;7.838;2023-02-10T04:21:49;45.90;;;25.00;;
29370;SDS011;16357;52.188;7.838;2023-02-10T04:24:16;49.78;;;26.80;;
29370;SDS011;16357;52.188;7.838;2023-02-10T04:26:42;49.20;;;27.70;;
29370;SDS011;16357;52.188;7.838;2023-02-10T04:29:09;48.65;;;27.17;;
29370;SDS011;16357;52.188;7.838;2023-02-10T04:31:35;49.10;;;27.77;;
29370;SDS011;16357;52.188;7.838;2023-02-10T04:34:02;44.97;;;26.38;;
29370;SDS011;16357;52.188;7.838;2023-02-10T04:36:29;45.17;;;25.58;;
29370;SDS011;16357;52.188;7.838;2023-02-10T04:38:55;46.42;;;26.40;;
29370;SDS011;16357;52.188;7.838;2023-02-10T04:41:22;42.63;;;25.60;;
29370;SDS011;16357;52.188;7.838;2023-02-10T04:43:48;48.25;;;26.55;;
29370;SDS011;16357;52.188;7.838;2023-02-10T04:46:15;43.22;;;25.10;;
29370;SDS011;16357;52.188;7.838;2023-02-10T04:48:41;52.38;;;26.38;;
29370;SDS011;16357;52.188;7.838;2023-02-10T04:51:08;44.92;;;25.98;;
29370;SDS011;16357;52.188;7.838;2023-02-10T04:53:36;43.42;;;24.80;;
29370;SDS011;16357;52.188;7.838;2023-02-10T04:56:03;49.83;;;26.65;;
29370;SDS011;16357;52.188;7.838;2023-02-10T04:58:30;42.78;;;25.13;;
29370;SDS011;16357;52.188;7.838;2023-02-10T05:00:58;54.42;;;28.80;;
29370;SDS011;16357;52.188;7.838;2023-02-10T05:03:24;48.65;;;26.17;;
29370;SDS011;16357;52.188;7.838;2023-02-10T05:05:51;53.78;;;28.35;;
29370;SDS011;16357;52.188;7.838;2023-02-10T05:08:18;48.17;;;26.70;;
29370;SDS011;16357;52.188;7.838;2023-02-10T05:10:50;46.08;;;26.55;;
29370;SDS011;16357;52.188;7.838;2023-02-10T05:13:18;45.33;;;26.40;;
29370;SDS011;16357;52.188;7.838;2023-02-10T05:15:46;49.00;;;27.42;;
29370;SDS011;16357;52.188;7.838;2023-02-10T05:18:13;51.97;;;27.05;;
29370;SDS011;16357;52.188;7.838;2023-02-10T05:20:39;53.15;;;27.75;;
29370;SDS011;16357;52.188;7.838;2023-02-10T05:23:06;49.80;;;28.88;;
29370;SDS011;16357;52.188;7.838;2023-02-10T05:25:32;55.65;;;29.52;;
29370;SDS011;16357;52.188;7.838;2023-02-10T05:27:59;49.17;;;27.60;;
29370;SDS011;16357;52.188;7.838;2023-02-10T05:30:25;44.00;;;26.10;;
29370;SDS011;16357;52.188;7.838;2023-02-10T05:32:51;47.35;;;26.77;;
29370;SDS011;16357;52.188;7.838;2023-02-10T05:35:18;50.05;;;28.60;;
29370;SDS011;16357;52.188;7.838;2023-02-10T05:37:44;50.85;;;26.98;;
29370;SDS011;16357;52.188;7.838;2023-02-10T05:40:11;52.30;;;28.48;;
29370;SDS011;16357;52.188;7.838;2023-02-10T05:42:37;47.45;;;27.38;;
29370;SDS011;16357;52.188;7.838;2023-02-10T05:45:04;49.20;;;27.92;;
29370;SDS011;16357;52.188;7.838;2023-02-10T05:47:30;47.70;;;27.40;;
29370;SDS011;16357;52.188;7.838;2023-02-10T05:49:57;54.80;;;28.38;;
29370;SDS011;16357;52.188;7.838;2023-02-10T05:52:23;46.97;;;26.92;;
29370;SDS011;16357;52.188;7.838;2023-02-10T05:54:50;47.20;;;26.92;;
29370;SDS011;16357;52.188;7.838;2023-02-10T05:57:16;53.03;;;28.38;;
29370;SDS011;16357;52.188;7.838;2023-02-10T05:59:43;52.95;;;28.02;;
29370;SDS011;16357;52.188;7.838;2023-02-10T06:02:09;51.92;;;27.05;;
29370;SDS011;16357;52.188;7.838;2023-02-10T06:04:35;53.58;;;27.73;;
29370;SDS011;16357;52.188;7.838;2023-02-10T06:07:02;56.60;;;28.45;;
29370;SDS011;16357;52.188;7.838;2023-02-10T06:09:30;51.45;;;27.83;;
29370;SDS011;16357;52.188;7.838;2023-02-10T06:11:56;51.58;;;27.30;;
29370;SDS011;16357;52.188;7.838;2023-02-10T06:14:23;50.88;;;27.20;;
29370;SDS011;16357;52.188;7.838;2023-02-10T06:16:49;50.45;;;27.27;;
29370;SDS011;16357;52.188;7.838;2023-02-10T06:19:16;47.47;;;27.00;;
29370;SDS011;16357;52.188;7.838;2023-02-10T06:21:45;48.88;;;27.67;;
29370;SDS011;16357;52.188;7.838;2023-02-10T06:24:12;54.10;;;28.45;;
29370;SDS011;16357;52.188;7.838;2023-02-10T06:26:38;55.40;;;27.83;;
29370;SDS011;16357;52.188;7.838;2023-02-10T06:29:05;52.30;;;28.52;;
29370;SDS011;16357;52.188;7.838;2023-02-10T06:31:32;50.95;;;27.02;;
29370;SDS011;16357;52.188;7.838;2023-02-10T06:33:59;53.33;;;28.55;;
29370;SDS011;16357;52.188;7.838;2023-02-10T06:36:25;56.47;;;29.65;;
29370;SDS011;16357;52.188;7.838;2023-02-10T06:38:52;49.50;;;28.00;;
29370;SDS011;16357;52.188;7.838;2023-02-10T06:41:18;56.72;;;28.95;;
29370;SDS011;16357;52.188;7.838;2023-02-10T06:43:44;49.35;;;27.35;;
29370;SDS011;16357;52.188;7.838;2023-02-10T06:46:11;50.50;;;27.63;;
29370;SDS011;16357;52.188;7.838;2023-02-10T06:48:39;52.72;;;29.10;;
29370;SDS011;16357;52.188;7.838;2023-02-10T06:51:05;52.72;;;28.55;;
29370;SDS011;16357;52.188;7.838;2023-02-10T06:53:32;52.30;;;27.67;;
29370;SDS011;16357;52.188;7.838;2023-02-10T06:55:58;55.05;;;28.30;;
29370;SDS011;16357;52.188;7.838;2023-02-10T06:58:25;52.50;;;28.40;;
29370;SDS011;16357;52.188;7.838;2023-02-10T07:00:51;57.90;;;28.42;;
29370;SDS011;16357;52.188;7.838;2023-02-10T07:03:18;59.55;;;30.83;;
29370;SDS011;16357;52.188;7.838;2023-02-10T07:05:44;51.65;;;27.92;;
29370;SDS011;16357;52.188;7.838;2023-02-10T07:08:11;52.40;;;28.85;;
29370;SDS011;16357;52.188;7.838;2023-02-10T07:10:38;53.08;;;29.70;;
29370;SDS011;16357;52.188;7.838;2023-02-10T07:13:05;58.05;;;30.80;;
29370;SDS011;16357;52.188;7.838;2023-02-10T07:15:31;58.33;;;30.55;;
29370;SDS011;16357;52.188;7.838;2023-02-10T07:17:58;54.55;;;29.95;;
29370;SDS011;16357;52.188;7.838;2023-02-10T07:20:24;56.00;;;30.08;;
29370;SDS011;16357;52.188;7.838;2023-02-10T07:22:52;52.67;;;30.02;;
29370;SDS011;16357;52.188;7.838;2023-02-10T07:25:18;61.72;;;30.25;;
29370;SDS011;16357;52.188;7.838;2023-02-10T07:27:45;58.38;;;32.05;;
29370;SDS011;16357;52.188;7.838;2023-02-10T07:30:11;63.67;;;32.00;;
29370;SDS011;16357;52.188;7.838;2023-02-10T07:32:38;60.20;;;30.92;;
29370;SDS011;16357;52.188;7.838;2023-02-10T07:35:07;53.50;;;29.95;;
29370;SDS011;16357;52.188;7.838;2023-02-10T07:37:35;58.60;;;31.20;;
29370;SDS011;16357;52.188;7.838;2023-02-10T07:40:02;57.42;;;31.58;;
29370;SDS011;16357;52.188;7.838;2023-02-10T07:42:29;62.38;;;31.90;;
29370;SDS011;16357;52.188;7.838;2023-02-10T07:44:55;60.90;;;32.67;;
29370;SDS011;16357;52.188;7.838;2023-02-10T07:47:22;59.45;;;30.70;;
29370;SDS011;16357;52.188;7.838;2023-02-10T07:49:48;61.55;;;32.38;;
29370;SDS011;16357;52.188;7.838;2023-02-10T07:52:15;58.28;;;33.80;;
29370;SDS011;16357;52.188;7.838;2023-02-10T07:54:41;60.42;;;31.77;;
29370;SDS011;16357;52.188;7.838;2023-02-10T07:57:07;63.97;;;33.92;;
29370;SDS011;16357;52.188;7.838;2023-02-10T07:59:34;65.75;;;32.88;;
29370;SDS011;16357;52.188;7.838;2023-02-10T08:02:00;66.18;;;34.70;;
29370;SDS011;16357;52.188;7.838;2023-02-10T08:04:29;64.68;;;36.00;;
29370;SDS011;16357;52.188;7.838;2023-02-10T08:06:56;61.65;;;34.72;;
29370;SDS011;16357;52.188;7.838;2023-02-10T08:09:23;62.10;;;34.50;;
29370;SDS011;16357;52.188;7.838;2023-02-10T08:11:49;64.05;;;33.78;;
29370;SDS011;16357;52.188;7.838;2023-02-10T08:14:16;62.38;;;33.75;;
29370;SDS011;16357;52.188;7.838;2023-02-10T08:16:42;58.35;;;33.55;;
29370;SDS011;16357;52.188;7.838;2023-02-10T08:19:09;60.45;;;33.30;;
29370;SDS011;16357;52.188;7.838;2023-02-10T08:21:35;66.28;;;37.10;;
29370;SDS011;16357;52.188;7.838;2023-02-10T08:24:02;67.57;;;35.78;;
29370;SDS011;16357;52.188;7.838;2023-02-10T08:26:28;64.60;;;34.10;;
29370;SDS011;16357;52.188;7.838;2023-02-10T08:28:55;62.25;;;34.50;;
29370;SDS011;16357;52.188;7.838;2023-02-10T08:31:24;57.50;;;34.42;;
29370;SDS011;16357;52.188;7.838;2023-02-10T08:33:51;60.67;;;33.97;;
29370;SDS011;16357;52.188;7.838;2023-02-10T08:36:18;56.65;;;33.70;;
29370;SDS011;16357;52.188;7.838;2023-02-10T08:38:47;61.05;;;33.92;;
29370;SDS011;16357;52.188;7.838;2023-02-10T08:41:15;63.38;;;34.97;;
29370;SDS011;16357;52.188;7.838;2023-02-10T08:43:42;64.30;;;34.95;;
29370;SDS011;16357;52.188;7.838;2023-02-10T08:46:09;61.97;;;35.47;;
29370;SDS011;16357;52.188;7.838;2023-02-10T08:48:35;63.33;;;35.45;;
29370;SDS011;16357;52.188;7.838;2023-02-10T08:51:06;63.05;;;35.67;;
29370;SDS011;16357;52.188;7.838;2023-02-10T08:53:34;61.90;;;35.40;;
29370;SDS011;16357;52.188;7.838;2023-02-10T08:56:06;63.95;;;37.08;;
29370;SDS011;16357;52.188;7.838;2023-02-10T08:58:35;64.90;;;37.05;;
29370;SDS011;16357;52.188;7.838;2023-02-10T09:01:09;60.90;;;36.35;;
29370;SDS011;16357;52.188;7.838;2023-02-10T09:03:38;65.28;;;37.03;;
29370;SDS011;16357;52.188;7.838;2023-02-10T09:06:05;65.93;;;36.53;;
29370;SDS011;16357;52.188;7.838;2023-02-10T09:08:32;68.40;;;35.60;;
29370;SDS011;16357;52.188;7.838;2023-02-10T09:10:58;69.57;;;37.30;;
29370;SDS011;16357;52.188;7.838;2023-02-10T09:13:25;71.95;;;37.45;;
29370;SDS011;16357;52.188;7.838;2023-02-10T09:15:51;70.03;;;37.38;;
29370;SDS011;16357;52.188;7.838;2023-02-10T09:18:18;62.40;;;36.55;;
29370;SDS011;16357;52.188;7.838;2023-02-10T09:20:44;68.20;;;38.95;;
29370;SDS011;16357;52.188;7.838;2023-02-10T09:23:10;68.05;;;38.42;;
29370;SDS011;16357;52.188;7.838;2023-02-10T09:25:37;74.07;;;37.97;;
29370;SDS011;16357;52.188;7.838;2023-02-10T09:28:12;72.07;;;40.05;;
29370;SDS011;16357;52.188;7.838;2023-02-10T09:30:39;68.82;;;38.65;;
29370;SDS011;16357;52.188;7.838;2023-02-10T09:33:05;65.75;;;37.88;;
29370;SDS011;16357;52.188;7.838;2023-02-10T09:35:31;70.97;;;39.00;;
29370;SDS011;16357;52.188;7.838;2023-02-10T09:37:58;68.35;;;38.40;;
29370;SDS011;16357;52.188;7.838;2023-02-10T09:40:26;68.03;;;36.97;;
29370;SDS011;16357;52.188;7.838;2023-02-10T09:45:24;70.13;;;37.22;;
29370;SDS011;16357;52.188;7.838;2023-02-10T09:48:42;67.43;;;36.63;;
29370;SDS011;16357;52.188;7.838;2023-02-10T09:51:02;64.40;;;35.28;;
29370;SDS011;16357;52.188;7.838;2023-02-10T09:53:49;60.38;;;33.47;;
29370;SDS011;16357;52.188;7.838;2023-02-10T09:56:19;70.40;;;35.83;;
29370;SDS011;16357;52.188;7.838;2023-02-10T09:58:56;65.35;;;36.20;;
29370;SDS011;16357;52.188;7.838;2023-02-10T10:03:56;64.25;;;34.53;;
29370;SDS011;16357;52.188;7.838;2023-02-10T10:06:28;70.88;;;35.78;;
29370;SDS011;16357;52.188;7.838;2023-02-10T10:11:41;60.90;;;34.30;;
29370;SDS011;16357;52.188;7.838;2023-02-10T10:19:42;58.53;;;32.30;;
29370;SDS011;16357;52.188;7.838;2023-02-10T10:28:33;60.42;;;31.52;;
29370;SDS011;16357;52.188;7.838;2023-02-10T10:31:10;61.28;;;31.90;;
29370;SDS011;16357;52.188;7.838;2023-02-10T10:33:45;60.15;;;31.67;;
29370;SDS011;16357;52.188;7.838;2023-02-10T10:36:16;58.85;;;31.90;;
29370;SDS011;16357;52.188;7.838;2023-02-10T10:38:54;58.90;;;30.98;;
29370;SDS011;16357;52.188;7.838;2023-02-10T10:41:27;60.88;;;30.63;;
29370;SDS011;16357;52.188;7.838;2023-02-10T10:43:57;58.08;;;30.88;;
29370;SDS011;16357;52.188;7.838;2023-02-10T10:49:08;56.08;;;31.33;;
29370;SDS011;16357;52.188;7.838;2023-02-10T10:51:35;63.03;;;32.67;;
29370;SDS011;16357;52.188;7.838;2023-02-10T10:54:02;56.67;;;31.42;;
29370;SDS011;16357;52.188;7.838;2023-02-10T10:59:11;62.35;;;31.92;;
29370;SDS011;16357;52.188;7.838;2023-02-10T11:01:48;60.67;;;32.78;;
29370;SDS011;16357;52.188;7.838;2023-02-10T11:04:24;68.60;;;33.17;;
29370;SDS011;16357;52.188;7.838;2023-02-10T11:06:53;65.00;;;32.47;;
29370;SDS011;16357;52.188;7.838;2023-02-10T11:09:24;59.90;;;33.40;;
29370;SDS011;16357;52.188;7.838;2023-02-10T11:12:00;63.83;;;31.50;;
29370;SDS011;16357;52.188;7.838;2023-02-10T11:14:29;64.07;;;32.85;;
29370;SDS011;16357;52.188;7.838;2023-02-10T11:17:15;68.47;;;35.63;;
29370;SDS011;16357;52.188;7.838;2023-02-10T11:19:53;64.43;;;34.58;;
29370;SDS011;16357;52.188;7.838;2023-02-10T11:22:24;60.95;;;33.15;;
29370;SDS011;16357;52.188;7.838;2023-02-10T11:24:52;56.60;;;33.47;;
29370;SDS011;16357;52.188;7.838;2023-02-10T11:27:24;61.90;;;33.22;;
29370;SDS011;16357;52.188;7.838;2023-02-10T11:29:52;55.58;;;32.63;;
29370;SDS011;16357;52.188;7.838;2023-02-10T11:32:24;58.60;;;30.40;;
29370;SDS011;16357;52.188;7.838;2023-02-10T11:34:57;55.45;;;30.17;;
29370;SDS011;16357;52.188;7.838;2023-02-10T11:37:27;53.67;;;29.85;;
29370;SDS011;16357;52.188;7.838;2023-02-10T11:39:59;48.05;;;28.02;;
29370;SDS011;16357;52.188;7.838;2023-02-10T11:42:29;50.05;;;26.75;;
29370;SDS011;16357;52.188;7.838;2023-02-10T11:45:00;45.95;;;26.75;;
29370;SDS011;16357;52.188;7.838;2023-02-10T11:47:30;48.75;;;24.70;;
29370;SDS011;16357;52.188;7.838;2023-02-10T11:49:58;46.45;;;26.70;;
29370;SDS011;16357;52.188;7.838;2023-02-10T11:52:26;45.05;;;24.88;;
29370;SDS011;16357;52.188;7.838;2023-02-10T11:54:56;44.88;;;24.58;;
29370;SDS011;16357;52.188;7.838;2023-02-10T12:01:01;38.90;;;21.67;;
29370;SDS011;16357;52.188;7.838;2023-02-10T12:03:33;43.00;;;21.70;;
29370;SDS011;16357;52.188;7.838;2023-02-10T12:09:15;37.95;;;21.52;;
29370;SDS011;16357;52.188;7.838;2023-02-10T12:12:11;32.83;;;19.92;;
29370;SDS011;16357;52.188;7.838;2023-02-10T12:31:06;36.53;;;17.20;;
29370;SDS011;16357;52.188;7.838;2023-02-10T12:36:39;31.38;;;16.45;;
29370;SDS011;16357;52.188;7.838;2023-02-10T12:44:46;28.65;;;15.20;;
29370;SDS011;16357;52.188;7.838;2023-02-10T12:58:08;24.27;;;13.55;;
29370;SDS011;16357;52.188;7.838;2023-02-10T13:00:56;28.15;;;13.75;;
29370;SDS011;16357;52.188;7.838;2023-02-10T13:03:38;29.67;;;13.52;;
29370;SDS011;16357;52.188;7.838;2023-02-10T13:09:00;27.42;;;13.60;;
29370;SDS011;16357;52.188;7.838;2023-02-10T13:14:12;25.10;;;13.60;;
29370;SDS011;16357;52.188;7.838;2023-02-10T13:16:49;26.15;;;13.50;;
29370;SDS011;16357;52.188;7.838;2023-02-10T13:36:23;25.25;;;10.73;;
29370;SDS011;16357;52.188;7.838;2023-02-10T13:42:03;21.58;;;10.70;;
29370;SDS011;16357;52.188;7.838;2023-02-10T13:45:02;23.73;;;10.38;;
29370;SDS011;16357;52.188;7.838;2023-02-10T13:52:49;22.98;;;10.73;;
29370;SDS011;16357;52.188;7.838;2023-02-10T14:00:25;22.85;;;10.82;;
29370;SDS011;16357;52.188;7.838;2023-02-10T14:05:32;21.98;;;9.65;;
29370;SDS011;16357;52.188;7.838;2023-02-10T14:08:11;24.58;;;11.73;;
29370;SDS011;16357;52.188;7.838;2023-02-10T14:10:40;23.83;;;11.18;;
29370;SDS011;16357;52.188;7.838;2023-02-10T14:13:20;24.35;;;10.90;;
29370;SDS011;16357;52.188;7.838;2023-02-10T14:15:56;21.77;;;10.52;;
29370;SDS011;16357;52.188;7.838;2023-02-10T14:18:33;21.90;;;10.88;;
29370;SDS011;16357;52.188;7.838;2023-02-10T14:21:05;22.40;;;10.57;;
29370;SDS011;16357;52.188;7.838;2023-02-10T14:23:37;22.02;;;10.27;;
29370;SDS011;16357;52.188;7.838;2023-02-10T14:26:07;21.40;;;9.55;;
29370;SDS011;16357;52.188;7.838;2023-02-10T14:28:41;21.65;;;9.77;;
29370;SDS011;16357;52.188;7.838;2023-02-10T14:31:15;21.83;;;10.07;;
29370;SDS011;16357;52.188;7.838;2023-02-10T14:33:54;21.80;;;10.02;;
29370;SDS011;16357;52.188;7.838;2023-02-10T14:36:25;21.40;;;9.40;;
29370;SDS011;16357;52.188;7.838;2023-02-10T14:38:54;25.55;;;9.70;;
29370;SDS011;16357;52.188;7.838;2023-02-10T14:41:29;24.13;;;9.52;;
29370;SDS011;16357;52.188;7.838;2023-02-10T14:43:58;25.83;;;9.52;;
29370;SDS011;16357;52.188;7.838;2023-02-10T14:46:26;22.45;;;10.48;;
29370;SDS011;16357;52.188;7.838;2023-02-10T14:48:59;30.05;;;11.25;;
29370;SDS011;16357;52.188;7.838;2023-02-10T14:51:29;23.83;;;11.27;;
29370;SDS011;16357;52.188;7.838;2023-02-10T14:54:06;24.15;;;10.40;;
29370;SDS011;16357;52.188;7.838;2023-02-10T14:56:51;25.15;;;10.73;;
29370;SDS011;16357;52.188;7.838;2023-02-10T14:59:24;23.58;;;11.15;;
29370;SDS011;16357;52.188;7.838;2023-02-10T15:02:00;23.52;;;10.70;;
29370;SDS011;16357;52.188;7.838;2023-02-10T15:04:45;23.10;;;10.40;;
29370;SDS011;16357;52.188;7.838;2023-02-10T15:07:18;23.90;;;10.90;;
29370;SDS011;16357;52.188;7.838;2023-02-10T15:09:48;23.20;;;11.30;;
29370;SDS011;16357;52.188;7.838;2023-02-10T15:12:16;26.52;;;11.43;;
29370;SDS011;16357;52.188;7.838;2023-02-10T15:17:40;26.15;;;10.88;;
29370;SDS011;16357;52.188;7.838;2023-02-10T15:25:28;24.75;;;11.13;;
29370;SDS011;16357;52.188;7.838;2023-02-10T15:36:21;28.67;;;10.85;;
29370;SDS011;16357;52.188;7.838;2023-02-10T15:41:36;24.98;;;11.65;;
29370;SDS011;16357;52.188;7.838;2023-02-10T15:46:45;23.70;;;10.73;;
29370;SDS011;16357;52.188;7.838;2023-02-10T15:49:14;24.88;;;11.45;;
29370;SDS011;16357;52.188;7.838;2023-02-10T15:51:47;26.08;;;10.73;;
29370;SDS011;16357;52.188;7.838;2023-02-10T15:54:20;19.63;;;9.85;;
29370;SDS011;16357;52.188;7.838;2023-02-10T15:56:53;22.80;;;10.32;;
29370;SDS011;16357;52.188;7.838;2023-02-10T15:59:20;23.95;;;10.57;;
29370;SDS011;16357;52.188;7.838;2023-02-10T16:01:50;23.95;;;10.73;;
29370;SDS011;16357;52.188;7.838;2023-02-10T16:04:16;22.75;;;10.30;;
29370;SDS011;16357;52.188;7.838;2023-02-10T16:06:43;28.73;;;11.15;;
29370;SDS011;16357;52.188;7.838;2023-02-10T16:09:10;23.30;;;10.77;;
29370;SDS011;16357;52.188;7.838;2023-02-10T16:11:36;28.58;;;10.73;;
29370;SDS011;16357;52.188;7.838;2023-02-10T16:14:03;21.73;;;10.10;;
29370;SDS011;16357;52.188;7.838;2023-02-10T16:16:29;24.73;;;9.85;;
29370;SDS011;16357;52.188;7.838;2023-02-10T16:18:56;21.33;;;9.80;;
29370;SDS011;16357;52.188;7.838;2023-02-10T16:21:23;24.10;;;10.68;;
29370;SDS011;16357;52.188;7.838;2023-02-10T16:23:52;22.40;;;9.20;;
29370;SDS011;16357;52.188;7.838;2023-02-10T16:26:20;23.25;;;9.82;;
29370;SDS011;16357;52.188;7.838;2023-02-10T16:28:49;20.42;;;9.43;;
29370;SDS011;16357;52.188;7.838;2023-02-10T16:31:16;26.45;;;9.95;;
29370;SDS011;16357;52.188;7.838;2023-02-10T16:33:45;26.35;;;9.45;;
29370;SDS011;16357;52.188;7.838;2023-02-10T16:36:15;25.70;;;10.68;;
29370;SDS011;16357;52.188;7.838;2023-02-10T16:38:43;24.48;;;9.35;;
29370;SDS011;16357;52.188;7.838;2023-02-10T16:41:16;30.45;;;11.57;;
29370;SDS011;16357;52.188;7.838;2023-02-10T16:43:43;33.00;;;11.50;;
29370;SDS011;16357;52.188;7.838;2023-02-10T16:46:15;24.30;;;10.32;;
29370;SDS011;16357;52.188;7.838;2023-02-10T16:48:43;25.65;;;10.98;;
29370;SDS011;16357;52.188;7.838;2023-02-10T16:51:10;27.60;;;10.50;;
29370;SDS011;16357;52.188;7.838;2023-02-10T16:53:36;20.50;;;10.60;;
29370;SDS011;16357;52.188;7.838;2023-02-10T16:56:03;24.35;;;10.75;;
29370;SDS011;16357;52.188;7.838;2023-02-10T16:58:30;28.48;;;11.63;;
29370;SDS011;16357;52.188;7.838;2023-02-10T17:00:57;31.95;;;11.65;;
29370;SDS011;16357;52.188;7.838;2023-02-10T17:03:24;25.45;;;11.38;;
29370;SDS011;16357;52.188;7.838;2023-02-10T17:05:51;26.00;;;12.15;;
29370;SDS011;16357;52.188;7.838;2023-02-10T17:08:17;25.73;;;11.27;;